sensor_id;sensor_type;location;lat;lon;timestamp;pressure;altitude;pressure_sealevel;temperature;humidity
29461;BME280;16428;47.836;35.106;2023-05-24T00:00:11;100927.94;;;17.31;100.00
29461;BME280;16428;47.836;35.106;2023-05-24T00:02:39;100935.88;;;17.33;100.00
29461;BME280;16428;47.836;35.106;2023-05-24T00:05:08;100938.03;;;17.24;100.00
29461;BME280;16428;47.836;35.106;2023-05-24T00:07:37;100939.06;;;17.23;100.00
29461;BME280;16428;47.836;35.106;2023-05-24T00:10:05;100931.16;;;17.15;100.00
29461;BME280;16428;47.836;35.106;2023-05-24T00:12:34;100933.22;;;17.26;100.00
29461;BME280;16428;47.836;35.106;2023-05-24T00:15:01;100931.41;;;17.07;100.00
29461;BME280;16428;47.836;35.106;2023-05-24T00:17:29;100933.50;;;17.05;100.00
29461;BME280;16428;47.836;35.106;2023-05-24T00:19:56;100940.06;;;17.29;100.00
29461;BME280;16428;47.836;35.106;2023-05-24T00:22:24;100933.81;;;17.28;100.00
29461;BME280;16428;47.836;35.106;2023-05-24T00:24:51;100936.72;;;17.33;100.00
29461;BME280;16428;47.836;35.106;2023-05-24T00:27:19;100933.03;;;17.21;100.00
29461;BME280;16428;47.836;35.106;2023-05-24T00:29:46;100936.78;;;17.20;100.00
29461;BME280;16428;47.836;35.106;2023-05-24T00:32:13;100936.72;;;17.27;100.00
29461;BME280;16428;47.836;35.106;2023-05-24T00:34:40;100934.44;;;17.30;100.00
29461;BME280;16428;47.836;35.106;2023-05-24T00:37:07;100937.63;;;17.14;100.00
29461;BME280;16428;47.836;35.106;2023-05-24T00:39:35;100927.66;;;17.08;100.00
29461;BME280;16428;47.836;35.106;2023-05-24T00:42:02;100925.56;;;17.10;100.00
29461;BME280;16428;47.836;35.106;2023-05-24T00:44:31;100921.78;;;17.11;100.00
29461;BME280;16428;47.836;35.106;2023-05-24T00:46:59;100921.78;;;17.11;100.00
29461;BME280;16428;47.836;35.106;2023-05-24T00:49:26;100923.41;;;17.18;100.00
29461;BME280;16428;47.836;35.106;2023-05-24T00:51:53;100925.50;;;17.23;100.00
29461;BME280;16428;47.836;35.106;2023-05-24T00:54:21;100924.03;;;17.20;100.00
29461;BME280;16428;47.836;35.106;2023-05-24T00:56:48;100929.69;;;17.12;100.00
29461;BME280;16428;47.836;35.106;2023-05-24T00:59:15;100932.44;;;17.06;100.00
29461;BME280;16428;47.836;35.106;2023-05-24T01:01:42;100924.31;;;16.99;100.00
29461;BME280;16428;47.836;35.106;2023-05-24T01:04:13;100927.91;;;16.86;100.00
29461;BME280;16428;47.836;35.106;2023-05-24T01:12:45;100917.25;;;16.92;100.00
29461;BME280;16428;47.836;35.106;2023-05-24T01:18:06;100909.16;;;16.78;100.00
29461;BME280;16428;47.836;35.106;2023-05-24T01:20:35;100901.81;;;16.85;100.00
29461;BME280;16428;47.836;35.106;2023-05-24T01:26:13;100901.03;;;16.65;100.00
29461;BME280;16428;47.836;35.106;2023-05-24T01:28:44;100909.16;;;16.59;100.00
29461;BME280;16428;47.836;35.106;2023-05-24T01:31:15;100907.28;;;16.66;100.00
29461;BME280;16428;47.836;35.106;2023-05-24T01:33:44;100903.53;;;16.60;100.00
29461;BME280;16428;47.836;35.106;2023-05-24T01:36:11;100894.78;;;16.58;100.00
29461;BME280;16428;47.836;35.106;2023-05-24T01:38:38;100901.44;;;16.62;100.00
29461;BME280;16428;47.836;35.106;2023-05-24T01:41:17;100902.09;;;16.64;100.00
29461;BME280;16428;47.836;35.106;2023-05-24T01:43:57;100898.56;;;16.64;100.00
29461;BME280;16428;47.836;35.106;2023-05-24T01:46:35;100900.63;;;16.68;100.00
29461;BME280;16428;47.836;35.106;2023-05-24T01:49:16;100901.44;;;16.62;100.00
29461;BME280;16428;47.836;35.106;2023-05-24T01:51:52;100900.44;;;16.63;100.00
29461;BME280;16428;47.836;35.106;2023-05-24T01:54:22;100901.44;;;16.62;100.00
29461;BME280;16428;47.836;35.106;2023-05-24T01:56:52;100904.78;;;16.71;100.00
29461;BME280;16428;47.836;35.106;2023-05-24T01:59:23;100912.72;;;16.72;100.00
29461;BME280;16428;47.836;35.106;2023-05-24T02:01:52;100914.81;;;16.70;100.00
29461;BME280;16428;47.836;35.106;2023-05-24T02:04:19;100916.47;;;16.58;100.00
29461;BME280;16428;47.836;35.106;2023-05-24T02:06:47;100918.56;;;16.56;100.00
29461;BME280;16428;47.836;35.106;2023-05-24T02:09:14;100920.22;;;16.50;100.00
29461;BME280;16428;47.836;35.106;2023-05-24T02:11:41;100918.16;;;16.39;100.00
29461;BME280;16428;47.836;35.106;2023-05-24T02:14:08;100932.31;;;16.61;100.00
29461;BME280;16428;47.836;35.106;2023-05-24T02:16:35;100929.00;;;16.46;100.00
29461;BME280;16428;47.836;35.106;2023-05-24T02:19:08;100934.00;;;16.42;100.00
29461;BME280;16428;47.836;35.106;2023-05-24T02:21:36;100941.09;;;16.37;100.00
29461;BME280;16428;47.836;35.106;2023-05-24T02:24:03;100935.66;;;16.37;100.00
29461;BME280;16428;47.836;35.106;2023-05-24T02:26:31;100935.66;;;16.37;100.00
29461;BME280;16428;47.836;35.106;2023-05-24T02:28:58;100942.75;;;16.51;100.00
29461;BME280;16428;47.836;35.106;2023-05-24T02:31:25;100933.59;;;16.45;100.00
29461;BME280;16428;47.836;35.106;2023-05-24T02:33:57;100942.53;;;16.52;100.00
29461;BME280;16428;47.836;35.106;2023-05-24T02:36:25;100943.19;;;16.48;100.00
29461;BME280;16428;47.836;35.106;2023-05-24T02:38:53;100955.06;;;16.53;100.00
29461;BME280;16428;47.836;35.106;2023-05-24T02:41:20;100955.72;;;16.49;100.00
29461;BME280;16428;47.836;35.106;2023-05-24T02:43:48;100956.09;;;16.52;100.00
29461;BME280;16428;47.836;35.106;2023-05-24T02:46:15;100952.16;;;16.68;100.00
29461;BME280;16428;47.836;35.106;2023-05-24T02:48:42;100950.44;;;16.80;100.00
29461;BME280;16428;47.836;35.106;2023-05-24T02:51:09;100945.84;;;16.87;100.00
29461;BME280;16428;47.836;35.106;2023-05-24T02:53:36;100952.72;;;16.97;100.00
29461;BME280;16428;47.836;35.106;2023-05-24T02:56:04;100940.84;;;16.91;100.00
29461;BME280;16428;47.836;35.106;2023-05-24T02:58:31;100941.47;;;16.86;100.00
29461;BME280;16428;47.836;35.106;2023-05-24T03:00:58;100941.44;;;17.00;100.00
29461;BME280;16428;47.836;35.106;2023-05-24T03:03:25;100945.03;;;16.94;100.00
29461;BME280;16428;47.836;35.106;2023-05-24T03:05:52;100942.72;;;16.91;100.00
29461;BME280;16428;47.836;35.106;2023-05-24T03:08:20;100945.66;;;16.89;100.00
29461;BME280;16428;47.836;35.106;2023-05-24T03:10:47;100950.88;;;16.91;100.00
29461;BME280;16428;47.836;35.106;2023-05-24T03:13:15;100951.91;;;16.90;100.00
29461;BME280;16428;47.836;35.106;2023-05-24T03:15:42;100947.34;;;16.77;100.00
29461;BME280;16428;47.836;35.106;2023-05-24T03:18:09;100953.63;;;16.77;100.00
29461;BME280;16428;47.836;35.106;2023-05-24T03:20:37;100938.13;;;16.84;100.00
29461;BME280;16428;47.836;35.106;2023-05-24T03:23:06;100942.69;;;16.97;100.00
29461;BME280;16428;47.836;35.106;2023-05-24T03:25:33;100952.91;;;17.02;100.00
29461;BME280;16428;47.836;35.106;2023-05-24T03:28:00;100946.03;;;16.99;100.00
29461;BME280;16428;47.836;35.106;2023-05-24T03:30:28;100946.25;;;16.98;100.00
29461;BME280;16428;47.836;35.106;2023-05-24T03:32:55;100948.09;;;17.04;100.00
29461;BME280;16428;47.836;35.106;2023-05-24T03:35:23;100957.66;;;17.13;100.00
29461;BME280;16428;47.836;35.106;2023-05-24T03:37:50;100951.19;;;17.14;100.00
29461;BME280;16428;47.836;35.106;2023-05-24T03:40:17;100956.00;;;17.12;100.00
29461;BME280;16428;47.836;35.106;2023-05-24T03:42:44;100953.03;;;17.27;100.00
29461;BME280;16428;47.836;35.106;2023-05-24T03:45:11;100949.59;;;17.44;100.00
29461;BME280;16428;47.836;35.106;2023-05-24T03:47:44;100946.44;;;17.54;100.00
29461;BME280;16428;47.836;35.106;2023-05-24T03:50:12;100950.00;;;17.54;100.00
29461;BME280;16428;47.836;35.106;2023-05-24T03:52:41;100955.03;;;17.44;100.00
29461;BME280;16428;47.836;35.106;2023-05-24T03:55:08;100954.00;;;17.45;100.00
29461;BME280;16428;47.836;35.106;2023-05-24T03:57:35;100946.28;;;17.42;100.00
29461;BME280;16428;47.836;35.106;2023-05-24T04:00:03;100942.47;;;17.56;100.00
29461;BME280;16428;47.836;35.106;2023-05-24T04:02:33;100954.97;;;17.71;100.00
29461;BME280;16428;47.836;35.106;2023-05-24T04:05:00;100950.34;;;17.71;100.00
29461;BME280;16428;47.836;35.106;2023-05-24T04:07:28;100951.13;;;17.78;100.00
29461;BME280;16428;47.836;35.106;2023-05-24T04:09:56;100945.22;;;17.88;100.00
29461;BME280;16428;47.836;35.106;2023-05-24T04:12:23;100944.75;;;17.98;100.00
29461;BME280;16428;47.836;35.106;2023-05-24T04:14:50;100944.66;;;18.11;100.00
29461;BME280;16428;47.836;35.106;2023-05-24T04:17:18;100941.75;;;18.06;100.00
29461;BME280;16428;47.836;35.106;2023-05-24T04:19:45;100951.16;;;18.03;100.00
29461;BME280;16428;47.836;35.106;2023-05-24T04:22:12;100947.91;;;18.19;100.00
29461;BME280;16428;47.836;35.106;2023-05-24T04:24:39;100952.66;;;18.31;100.00
29461;BME280;16428;47.836;35.106;2023-05-24T04:27:06;100955.81;;;18.27;100.00
29461;BME280;16428;47.836;35.106;2023-05-24T04:29:34;100952.34;;;18.39;100.00
29461;BME280;16428;47.836;35.106;2023-05-24T04:32:01;100954.94;;;18.58;100.00
29461;BME280;16428;47.836;35.106;2023-05-24T04:34:28;100958.19;;;18.67;100.00
29461;BME280;16428;47.836;35.106;2023-05-24T04:36:59;100950.72;;;18.81;100.00
29461;BME280;16428;47.836;35.106;2023-05-24T04:39:28;100950.44;;;18.71;100.00
29461;BME280;16428;47.836;35.106;2023-05-24T04:41:56;100953.31;;;18.76;100.00
29461;BME280;16428;47.836;35.106;2023-05-24T04:44:24;100960.50;;;18.88;100.00
29461;BME280;16428;47.836;35.106;2023-05-24T04:46:51;100963.41;;;18.93;100.00
29461;BME280;16428;47.836;35.106;2023-05-24T04:49:19;100958.84;;;19.06;100.00
29461;BME280;16428;47.836;35.106;2023-05-24T04:51:46;100959.53;;;19.19;100.00
29461;BME280;16428;47.836;35.106;2023-05-24T04:54:13;100956.81;;;19.19;100.00
29461;BME280;16428;47.836;35.106;2023-05-24T04:56:40;100961.03;;;19.33;100.00
29461;BME280;16428;47.836;35.106;2023-05-24T04:59:07;100963.78;;;19.52;100.00
29461;BME280;16428;47.836;35.106;2023-05-24T05:01:37;100966.16;;;19.60;100.00
29461;BME280;16428;47.836;35.106;2023-05-24T05:04:05;100972.38;;;19.67;100.00
29461;BME280;16428;47.836;35.106;2023-05-24T05:06:33;100970.75;;;19.78;100.00
29461;BME280;16428;47.836;35.106;2023-05-24T05:09:06;100986.41;;;19.82;100.00
29461;BME280;16428;47.836;35.106;2023-05-24T05:11:38;100981.28;;;19.74;100.00
29461;BME280;16428;47.836;35.106;2023-05-24T05:14:06;100985.47;;;19.58;100.00
29461;BME280;16428;47.836;35.106;2023-05-24T05:16:37;100995.47;;;19.64;100.00
29461;BME280;16428;47.836;35.106;2023-05-24T05:19:04;100991.28;;;19.62;100.00
29461;BME280;16428;47.836;35.106;2023-05-24T05:21:32;100990.91;;;19.58;100.00
29461;BME280;16428;47.836;35.106;2023-05-24T05:24:00;100992.34;;;19.43;100.00
29461;BME280;16428;47.836;35.106;2023-05-24T05:26:28;100993.97;;;19.50;100.00
29461;BME280;16428;47.836;35.106;2023-05-24T05:28:56;101000.16;;;19.57;100.00
29461;BME280;16428;47.836;35.106;2023-05-24T05:31:24;100992.94;;;19.81;100.00
29461;BME280;16428;47.836;35.106;2023-05-24T05:33:52;100994.03;;;19.92;100.00
29461;BME280;16428;47.836;35.106;2023-05-24T05:36:19;101005.94;;;20.09;100.00
29461;BME280;16428;47.836;35.106;2023-05-24T05:38:46;100998.50;;;20.16;100.00
29461;BME280;16428;47.836;35.106;2023-05-24T05:41:13;101004.06;;;20.21;100.00
29461;BME280;16428;47.836;35.106;2023-05-24T05:43:40;101001.34;;;20.21;100.00
29461;BME280;16428;47.836;35.106;2023-05-24T05:46:07;101003.47;;;20.19;100.00
29461;BME280;16428;47.836;35.106;2023-05-24T05:48:38;101006.81;;;20.21;100.00
29461;BME280;16428;47.836;35.106;2023-05-24T05:51:05;101007.78;;;20.27;100.00
29461;BME280;16428;47.836;35.106;2023-05-24T05:53:33;101002.91;;;20.29;100.00
29461;BME280;16428;47.836;35.106;2023-05-24T05:56:00;101017.22;;;20.43;100.00
29461;BME280;16428;47.836;35.106;2023-05-24T05:58:27;101015.09;;;20.45;100.00
29461;BME280;16428;47.836;35.106;2023-05-24T06:00:54;101015.94;;;20.57;100.00
29461;BME280;16428;47.836;35.106;2023-05-24T06:03:22;101017.38;;;20.71;100.00
29461;BME280;16428;47.836;35.106;2023-05-24T06:05:49;101018.91;;;20.67;100.00
29461;BME280;16428;47.836;35.106;2023-05-24T06:08:17;101020.78;;;20.66;100.00
29461;BME280;16428;47.836;35.106;2023-05-24T06:10:44;101006.69;;;20.81;100.00
29461;BME280;16428;47.836;35.106;2023-05-24T06:13:12;101011.19;;;20.87;100.00
29461;BME280;16428;47.836;35.106;2023-05-24T06:15:39;101007.16;;;20.90;100.00
29461;BME280;16428;47.836;35.106;2023-05-24T06:18:07;101003.09;;;20.81;100.00
29461;BME280;16428;47.836;35.106;2023-05-24T06:20:34;100999.56;;;21.03;100.00
29461;BME280;16428;47.836;35.106;2023-05-24T06:23:03;101010.47;;;21.27;100.00
29461;BME280;16428;47.836;35.106;2023-05-24T06:25:30;101006.31;;;21.13;100.00
29461;BME280;16428;47.836;35.106;2023-05-24T06:27:58;101006.31;;;21.13;100.00
29461;BME280;16428;47.836;35.106;2023-05-24T06:30:26;101013.19;;;21.27;100.00
29461;BME280;16428;47.836;35.106;2023-05-24T06:32:54;101009.03;;;21.36;100.00
29461;BME280;16428;47.836;35.106;2023-05-24T06:35:22;101010.19;;;21.40;100.00
29461;BME280;16428;47.836;35.106;2023-05-24T06:37:49;101012.66;;;21.65;100.00
29461;BME280;16428;47.836;35.106;2023-05-24T06:40:16;101013.47;;;21.65;100.00
29461;BME280;16428;47.836;35.106;2023-05-24T06:42:43;101019.06;;;21.59;100.00
29461;BME280;16428;47.836;35.106;2023-05-24T06:45:10;101013.84;;;21.86;100.00
29461;BME280;16428;47.836;35.106;2023-05-24T06:47:38;101014.44;;;21.88;100.00
29461;BME280;16428;47.836;35.106;2023-05-24T06:50:05;101011.94;;;21.98;100.00
29461;BME280;16428;47.836;35.106;2023-05-24T06:52:34;101013.78;;;22.09;100.00
29461;BME280;16428;47.836;35.106;2023-05-24T06:55:01;101009.81;;;22.17;100.00
29461;BME280;16428;47.836;35.106;2023-05-24T06:57:28;101019.75;;;22.06;100.00
29461;BME280;16428;47.836;35.106;2023-05-24T06:59:55;101018.13;;;22.22;100.00
29461;BME280;16428;47.836;35.106;2023-05-24T07:02:23;101013.84;;;22.42;100.00
29461;BME280;16428;47.836;35.106;2023-05-24T07:04:53;101020.66;;;22.40;100.00
29461;BME280;16428;47.836;35.106;2023-05-24T07:07:20;101007.88;;;22.45;100.00
29461;BME280;16428;47.836;35.106;2023-05-24T07:09:48;101013.50;;;22.56;100.00
29461;BME280;16428;47.836;35.106;2023-05-24T07:12:15;101016.00;;;22.57;100.00
29461;BME280;16428;47.836;35.106;2023-05-24T07:14:43;101006.22;;;22.44;100.00
29461;BME280;16428;47.836;35.106;2023-05-24T07:17:10;101012.84;;;22.49;100.00
29461;BME280;16428;47.836;35.106;2023-05-24T07:19:37;101020.47;;;22.63;100.00
29461;BME280;16428;47.836;35.106;2023-05-24T07:22:04;101012.19;;;22.75;100.00
29461;BME280;16428;47.836;35.106;2023-05-24T07:24:32;101013.94;;;22.81;100.00
29461;BME280;16428;47.836;35.106;2023-05-24T07:26:59;101027.97;;;23.01;100.00
29461;BME280;16428;47.836;35.106;2023-05-24T07:29:26;101028.59;;;23.08;100.00
29461;BME280;16428;47.836;35.106;2023-05-24T07:31:54;101031.34;;;23.08;100.00
29461;BME280;16428;47.836;35.106;2023-05-24T07:34:22;101030.25;;;23.09;100.00
29461;BME280;16428;47.836;35.106;2023-05-24T07:36:53;101024.69;;;23.43;100.00
29461;BME280;16428;47.836;35.106;2023-05-24T07:39:20;101029.31;;;23.59;100.00
29461;BME280;16428;47.836;35.106;2023-05-24T07:41:47;101021.28;;;23.74;100.00
29461;BME280;16428;47.836;35.106;2023-05-24T07:44:14;101035.22;;;23.73;100.00
29461;BME280;16428;47.836;35.106;2023-05-24T07:46:42;101028.69;;;24.01;100.00
29461;BME280;16428;47.836;35.106;2023-05-24T07:49:09;101037.34;;;24.14;100.00
29461;BME280;16428;47.836;35.106;2023-05-24T07:51:37;101038.78;;;23.95;100.00
29461;BME280;16428;47.836;35.106;2023-05-24T07:54:05;101020.19;;;24.24;100.00
29461;BME280;16428;47.836;35.106;2023-05-24T07:56:32;101021.19;;;24.18;100.00
29461;BME280;16428;47.836;35.106;2023-05-24T07:58:59;101018.94;;;24.15;100.00
29461;BME280;16428;47.836;35.106;2023-05-24T08:01:31;101021.34;;;24.28;100.00
29461;BME280;16428;47.836;35.106;2023-05-24T08:04:01;101006.59;;;24.39;100.00
29461;BME280;16428;47.836;35.106;2023-05-24T08:06:32;101011.59;;;24.47;98.21
29461;BME280;16428;47.836;35.106;2023-05-24T08:08:59;101013.63;;;24.57;95.17
29461;BME280;16428;47.836;35.106;2023-05-24T08:11:27;101014.59;;;24.78;93.36
29461;BME280;16428;47.836;35.106;2023-05-24T08:13:54;101009.81;;;24.63;95.30
29461;BME280;16428;47.836;35.106;2023-05-24T08:16:23;101008.13;;;24.94;93.53
29461;BME280;16428;47.836;35.106;2023-05-24T08:18:50;101005.81;;;24.81;95.01
29461;BME280;16428;47.836;35.106;2023-05-24T08:21:20;100996.00;;;24.90;93.49
29461;BME280;16428;47.836;35.106;2023-05-24T08:23:48;100999.97;;;25.09;93.97
29461;BME280;16428;47.836;35.106;2023-05-24T08:26:15;100996.25;;;25.31;94.11
29461;BME280;16428;47.836;35.106;2023-05-24T08:28:45;100988.41;;;25.02;95.85
29461;BME280;16428;47.836;35.106;2023-05-24T08:31:12;100984.56;;;25.08;94.19
29461;BME280;16428;47.836;35.106;2023-05-24T08:33:40;100982.75;;;25.29;91.24
29461;BME280;16428;47.836;35.106;2023-05-24T08:36:07;100986.66;;;25.33;92.82
29461;BME280;16428;47.836;35.106;2023-05-24T08:38:34;100983.00;;;25.22;95.39
29461;BME280;16428;47.836;35.106;2023-05-24T08:41:04;100988.03;;;25.36;95.47
29461;BME280;16428;47.836;35.106;2023-05-24T08:43:33;100993.28;;;25.47;91.86
29461;BME280;16428;47.836;35.106;2023-05-24T08:46:01;100989.66;;;25.32;86.68
29461;BME280;16428;47.836;35.106;2023-05-24T08:48:30;100974.25;;;25.31;86.13
29461;BME280;16428;47.836;35.106;2023-05-24T08:50:58;100977.88;;;25.46;86.50
29461;BME280;16428;47.836;35.106;2023-05-24T08:53:26;100981.03;;;25.75;85.21
29461;BME280;16428;47.836;35.106;2023-05-24T08:55:53;100975.53;;;25.85;90.77
29461;BME280;16428;47.836;35.106;2023-05-24T08:58:23;100972.22;;;25.73;90.61
29461;BME280;16428;47.836;35.106;2023-05-24T09:00:50;100977.75;;;25.83;90.49
29461;BME280;16428;47.836;35.106;2023-05-24T09:03:18;100975.25;;;25.82;90.65
29461;BME280;16428;47.836;35.106;2023-05-24T09:05:46;100967.88;;;26.18;89.30
29461;BME280;16428;47.836;35.106;2023-05-24T09:08:14;100964.03;;;26.19;84.24
29461;BME280;16428;47.836;35.106;2023-05-24T09:10:44;100955.75;;;26.04;83.31
29461;BME280;16428;47.836;35.106;2023-05-24T09:13:22;100966.28;;;26.57;81.13
29461;BME280;16428;47.836;35.106;2023-05-24T09:15:50;100962.41;;;26.48;81.90
29461;BME280;16428;47.836;35.106;2023-05-24T09:18:17;100961.56;;;26.73;89.46
29461;BME280;16428;47.836;35.106;2023-05-24T09:20:45;100962.38;;;26.74;87.07
29461;BME280;16428;47.836;35.106;2023-05-24T09:23:14;100968.19;;;26.11;82.62
29461;BME280;16428;47.836;35.106;2023-05-24T09:25:43;100966.16;;;25.71;86.33
29461;BME280;16428;47.836;35.106;2023-05-24T09:28:18;100973.16;;;25.32;93.90
29461;BME280;16428;47.836;35.106;2023-05-24T09:31:00;100970.97;;;24.92;99.41
29461;BME280;16428;47.836;35.106;2023-05-24T09:33:33;100976.56;;;24.65;100.00
29461;BME280;16428;47.836;35.106;2023-05-24T09:36:03;100982.44;;;24.41;100.00
29461;BME280;16428;47.836;35.106;2023-05-24T09:38:30;100986.22;;;24.35;100.00
29461;BME280;16428;47.836;35.106;2023-05-24T09:41:03;100990.94;;;24.40;100.00
29461;BME280;16428;47.836;35.106;2023-05-24T09:43:31;100994.16;;;24.05;100.00
29461;BME280;16428;47.836;35.106;2023-05-24T09:46:03;101000.22;;;24.07;100.00
29461;BME280;16428;47.836;35.106;2023-05-24T09:48:31;101007.56;;;23.74;100.00
29461;BME280;16428;47.836;35.106;2023-05-24T09:51:04;101005.31;;;23.71;100.00
29461;BME280;16428;47.836;35.106;2023-05-24T09:53:34;101006.22;;;23.55;100.00
29461;BME280;16428;47.836;35.106;2023-05-24T09:56:04;101010.44;;;23.24;100.00
29461;BME280;16428;47.836;35.106;2023-05-24T09:58:32;101010.56;;;23.12;100.00
29461;BME280;16428;47.836;35.106;2023-05-24T10:01:07;101008.31;;;22.88;100.00
29461;BME280;16428;47.836;35.106;2023-05-24T10:03:36;101011.03;;;22.71;100.00
29461;BME280;16428;47.836;35.106;2023-05-24T10:06:06;101004.97;;;22.69;100.00
29461;BME280;16428;47.836;35.106;2023-05-24T10:08:35;101005.56;;;22.54;100.00
29461;BME280;16428;47.836;35.106;2023-05-24T10:11:02;101005.53;;;22.37;100.00
29461;BME280;16428;47.836;35.106;2023-05-24T10:13:35;101003.22;;;22.46;100.00
29461;BME280;16428;47.836;35.106;2023-05-24T10:16:02;101005.53;;;22.21;100.00
29461;BME280;16428;47.836;35.106;2023-05-24T10:18:30;101015.94;;;22.07;100.00
29461;BME280;16428;47.836;35.106;2023-05-24T10:20:58;101019.84;;;21.83;100.00
29461;BME280;16428;47.836;35.106;2023-05-24T10:23:31;101028.69;;;21.61;100.00
29461;BME280;16428;47.836;35.106;2023-05-24T10:28:42;101036.00;;;21.32;100.00
29461;BME280;16428;47.836;35.106;2023-05-24T10:31:14;101035.16;;;21.08;100.00
29461;BME280;16428;47.836;35.106;2023-05-24T10:33:44;101030.19;;;21.05;100.00
29461;BME280;16428;47.836;35.106;2023-05-24T10:36:15;101028.63;;;20.98;100.00
29461;BME280;16428;47.836;35.106;2023-05-24T10:38:45;101029.59;;;21.03;100.00
29461;BME280;16428;47.836;35.106;2023-05-24T10:41:12;101027.72;;;20.92;100.00
29461;BME280;16428;47.836;35.106;2023-05-24T10:43:44;101017.94;;;20.96;100.00
29461;BME280;16428;47.836;35.106;2023-05-24T10:46:32;101022.25;;;21.04;100.00
29461;BME280;16428;47.836;35.106;2023-05-24T10:49:00;101020.19;;;21.11;100.00
29461;BME280;16428;47.836;35.106;2023-05-24T10:54:16;101011.66;;;21.31;100.00
29461;BME280;16428;47.836;35.106;2023-05-24T10:56:49;101010.44;;;21.50;100.00
29461;BME280;16428;47.836;35.106;2023-05-24T11:01:55;101015.63;;;21.63;100.00
29461;BME280;16428;47.836;35.106;2023-05-24T11:04:23;101022.75;;;21.64;100.00
29461;BME280;16428;47.836;35.106;2023-05-24T11:06:56;101025.88;;;21.85;100.00
29461;BME280;16428;47.836;35.106;2023-05-24T11:09:24;101024.53;;;21.59;100.00
29461;BME280;16428;47.836;35.106;2023-05-24T11:12:29;101027.88;;;21.61;100.00
29461;BME280;16428;47.836;35.106;2023-05-24T11:14:52;101019.03;;;21.70;100.00
29461;BME280;16428;47.836;35.106;2023-05-24T11:17:20;101018.66;;;21.79;100.00
29461;BME280;16428;47.836;35.106;2023-05-24T11:19:52;101025.50;;;21.93;100.00
29461;BME280;16428;47.836;35.106;2023-05-24T11:22:22;101020.59;;;22.06;100.00
29461;BME280;16428;47.836;35.106;2023-05-24T11:24:53;101020.81;;;22.05;100.00
29461;BME280;16428;47.836;35.106;2023-05-24T11:27:20;101020.88;;;22.22;100.00
29461;BME280;16428;47.836;35.106;2023-05-24T11:29:48;101035.97;;;22.24;100.00
29461;BME280;16428;47.836;35.106;2023-05-24T11:32:18;101022.63;;;22.28;100.00
29461;BME280;16428;47.836;35.106;2023-05-24T11:34:47;101024.13;;;22.35;100.00
29461;BME280;16428;47.836;35.106;2023-05-24T11:37:15;101016.00;;;22.40;100.00
29461;BME280;16428;47.836;35.106;2023-05-24T11:39:49;101018.66;;;22.69;100.00
29461;BME280;16428;47.836;35.106;2023-05-24T11:42:20;101029.03;;;23.00;100.00
29461;BME280;16428;47.836;35.106;2023-05-24T11:44:49;101029.03;;;23.00;100.00
29461;BME280;16428;47.836;35.106;2023-05-24T11:47:19;101017.00;;;23.01;100.00
29461;BME280;16428;47.836;35.106;2023-05-24T11:49:50;101010.00;;;23.10;100.00
29461;BME280;16428;47.836;35.106;2023-05-24T11:52:18;101009.50;;;23.13;100.00
29461;BME280;16428;47.836;35.106;2023-05-24T11:54:46;101008.75;;;23.40;100.00
29461;BME280;16428;47.836;35.106;2023-05-24T11:57:13;101006.25;;;23.38;100.00
29461;BME280;16428;47.836;35.106;2023-05-24T11:59:41;100997.00;;;23.23;100.00
29461;BME280;16428;47.836;35.106;2023-05-24T12:02:09;100993.94;;;23.41;100.00
29461;BME280;16428;47.836;35.106;2023-05-24T12:04:36;100987.75;;;23.67;100.00
29461;BME280;16428;47.836;35.106;2023-05-24T12:07:09;100992.69;;;23.70;100.00
29461;BME280;16428;47.836;35.106;2023-05-24T12:09:37;100987.06;;;23.82;100.00
29461;BME280;16428;47.836;35.106;2023-05-24T12:12:05;100991.16;;;23.79;100.00
29461;BME280;16428;47.836;35.106;2023-05-24T12:14:34;100982.88;;;24.01;100.00
29461;BME280;16428;47.836;35.106;2023-05-24T12:17:01;100981.91;;;24.12;98.03
29461;BME280;16428;47.836;35.106;2023-05-24T12:19:30;100981.59;;;24.14;98.97
29461;BME280;16428;47.836;35.106;2023-05-24T12:22:05;100987.53;;;24.01;100.00
29461;BME280;16428;47.836;35.106;2023-05-24T12:24:34;100983.84;;;24.17;98.48
29461;BME280;16428;47.836;35.106;2023-05-24T12:27:02;100976.75;;;24.21;100.00
29461;BME280;16428;47.836;35.106;2023-05-24T12:29:36;100976.69;;;24.16;100.00
29461;BME280;16428;47.836;35.106;2023-05-24T12:32:05;100974.88;;;24.00;100.00
29461;BME280;16428;47.836;35.106;2023-05-24T12:34:42;100968.81;;;23.93;100.00
29461;BME280;16428;47.836;35.106;2023-05-24T12:37:10;100970.78;;;24.24;98.30
29461;BME280;16428;47.836;35.106;2023-05-24T12:39:39;100964.53;;;24.07;100.00
29461;BME280;16428;47.836;35.106;2023-05-24T12:42:11;100969.00;;;24.13;100.00
29461;BME280;16428;47.836;35.106;2023-05-24T12:44:39;100964.78;;;24.32;100.00
29461;BME280;16428;47.836;35.106;2023-05-24T12:47:07;100968.06;;;24.29;100.00
29461;BME280;16428;47.836;35.106;2023-05-24T12:49:35;100984.25;;;24.63;98.32
29461;BME280;16428;47.836;35.106;2023-05-24T12:52:03;100990.81;;;24.94;93.33
29461;BME280;16428;47.836;35.106;2023-05-24T12:54:30;100986.25;;;24.72;94.49
29461;BME280;16428;47.836;35.106;2023-05-24T12:56:57;100973.63;;;24.76;95.89